Time;durP1;ratioP1;P1;durP2;ratioP2;P2;SDS_P1;SDS_P2;PMS_P1;PMS_P2;Temp;Humidity;BMP_temperature;BMP_pressure;BME280_temperature;BME280_humidity;BME280_pressure;Samples;Min_cycle;Max_cycle;Signal;HPM_P1;HPM_P2
2023/06/06 00:01:54;;;;;;;8.90;2.97;;;;;;;19.99;69.14;99757.94;5042036;28;20081;-72
2023/06/06 00:04:19;;;;;;;6.90;2.90;;;;;;;20.01;69.28;99759.59;5036371;28;20060;-71
2023/06/06 00:06:45;;;;;;;10.50;2.87;;;;;;;20.01;68.94;99764.06;5036660;28;20036;-70
2023/06/06 00:09:11;;;;;;;9.77;2.93;;;;;;;20.00;68.94;99763.22;5036396;28;20478;-70
2023/06/06 00:11:39;;;;;;;10.30;2.97;;;;;;;20.00;69.01;99765.03;5036465;28;20279;-70
2023/06/06 00:14:07;;;;;;;8.40;2.95;;;;;;;19.99;69.42;99769.50;5018647;28;20022;-71
2023/06/06 00:16:34;;;;;;;11.18;2.97;;;;;;;19.97;69.23;99768.72;5036399;28;20029;-70
2023/06/06 00:19:00;;;;;;;11.68;3.40;;;;;;;19.94;68.72;99763.56;5036271;28;20109;-71
2023/06/06 00:21:26;;;;;;;9.60;3.33;;;;;;;19.90;68.82;99761.94;5036436;28;20438;-70
2023/06/06 00:23:52;;;;;;;10.63;2.70;;;;;;;19.87;68.93;99767.41;5036325;28;20080;-70
2023/06/06 00:26:17;;;;;;;9.10;2.85;;;;;;;19.83;69.16;99765.84;5036464;28;20029;-70
2023/06/06 00:28:43;;;;;;;11.60;3.20;;;;;;;19.81;69.00;99768.63;5036329;28;20025;-71
2023/06/06 00:31:08;;;;;;;8.73;2.80;;;;;;;19.75;68.95;99759.09;5023864;28;20025;-70
2023/06/06 00:33:33;;;;;;;19.10;3.40;;;;;;;19.64;69.29;99756.09;5038302;28;20021;-70
2023/06/06 00:35:59;;;;;;;11.17;2.90;;;;;;;19.53;69.49;99755.78;5040572;28;20307;-70
2023/06/06 00:38:24;;;;;;;11.10;3.00;;;;;;;19.48;69.76;99747.97;5040315;28;20025;-70
2023/06/06 00:40:50;;;;;;;12.40;3.00;;;;;;;19.43;69.94;99753.56;5040316;28;20036;-70
2023/06/06 00:43:15;;;;;;;11.30;2.95;;;;;;;19.38;69.97;99757.41;5040225;28;20112;-71
2023/06/06 00:45:41;;;;;;;13.17;3.30;;;;;;;19.31;69.97;99760.38;5040294;28;20504;-70
2023/06/06 00:48:07;;;;;;;11.13;2.87;;;;;;;19.31;70.03;99756.81;5039980;28;20064;-70
2023/06/06 00:50:34;;;;;;;10.05;2.35;;;;;;;19.33;69.67;99757.63;5039948;28;20060;-70
2023/06/06 00:53:00;;;;;;;12.30;3.05;;;;;;;19.37;70.01;99753.84;5022318;28;20540;-71
2023/06/06 00:55:26;;;;;;;10.83;3.40;;;;;;;19.44;69.94;99760.63;5040125;28;20030;-70
2023/06/06 00:57:52;;;;;;;9.25;3.13;;;;;;;19.47;69.75;99760.50;5039870;28;20081;-70
2023/06/06 01:00:18;;;;;;;11.48;3.05;;;;;;;19.51;69.64;99759.38;5021954;28;20091;-71
2023/06/06 01:02:47;;;;;;;8.47;2.47;;;;;;;19.50;69.44;99746.97;5044743;28;20036;-70
2023/06/06 01:05:15;;;;;;;10.00;2.78;;;;;;;19.49;69.42;99750.59;5021980;28;20112;-70
2023/06/06 01:07:42;;;;;;;13.13;2.42;;;;;;;19.50;69.16;99744.31;5021836;28;20525;-70
2023/06/06 01:10:09;;;;;;;11.10;2.78;;;;;;;19.49;69.52;99742.59;5039507;28;20052;-70
2023/06/06 01:12:37;;;;;;;8.93;2.97;;;;;;;19.49;69.59;99736.34;5039449;28;20596;-70
2023/06/06 01:15:26;;;;;;;10.00;2.63;;;;;;;19.46;69.46;99737.41;5039708;28;20116;-70
2023/06/06 01:17:52;;;;;;;8.45;2.40;;;;;;;19.46;69.37;99732.06;5039634;28;20022;-70
2023/06/06 01:20:21;;;;;;;7.72;2.67;;;;;;;19.43;69.49;99732.22;5039384;28;20030;-70
2023/06/06 01:22:48;;;;;;;9.48;2.70;;;;;;;19.40;69.70;99732.34;5039261;28;20029;-70
2023/06/06 01:25:19;;;;;;;12.30;2.50;;;;;;;19.40;69.51;99736.81;5039411;28;20021;-70
2023/06/06 01:27:47;;;;;;;12.13;2.83;;;;;;;19.35;69.66;99729.91;5039371;28;20022;-70
2023/06/06 01:30:15;;;;;;;10.30;3.15;;;;;;;19.32;69.67;99737.19;5038719;28;20040;-70
2023/06/06 01:32:59;;;;;;;11.05;2.45;;;;;;;19.22;69.81;99732.31;5039172;28;20572;-70
2023/06/06 01:35:33;;;;;;;7.40;2.30;;;;;;;19.19;69.98;99736.94;5034169;28;20021;-70
2023/06/06 01:38:09;;;;;;;8.75;2.35;;;;;;;19.19;69.84;99743.16;5039267;28;20096;-70
2023/06/06 01:40:37;;;;;;;10.10;2.83;;;;;;;19.21;69.78;99738.59;5038903;28;20111;-70
2023/06/06 01:43:06;;;;;;;8.55;2.50;;;;;;;19.22;69.81;99737.66;5039115;28;20071;-70
2023/06/06 01:45:33;;;;;;;8.52;2.40;;;;;;;19.24;69.74;99731.38;5038041;28;20029;-70
2023/06/06 01:48:00;;;;;;;7.28;2.70;;;;;;;19.26;69.67;99727.69;5038829;28;20049;-70
2023/06/06 01:50:25;;;;;;;11.27;2.80;;;;;;;19.26;69.94;99735.69;5038697;28;20029;-70
2023/06/06 01:52:55;;;;;;;7.90;2.53;;;;;;;19.25;69.92;99730.44;5038927;28;20076;-70
2023/06/06 01:55:21;;;;;;;8.38;2.45;;;;;;;19.22;70.22;99729.66;5038828;28;20028;-70
2023/06/06 01:57:47;;;;;;;6.37;2.37;;;;;;;19.20;69.93;99728.88;5038839;28;20032;-70
2023/06/06 02:00:15;;;;;;;7.57;2.60;;;;;;;19.19;70.06;99732.47;5038453;28;20017;-70
2023/06/06 02:02:41;;;;;;;8.40;2.20;;;;;;;19.20;70.24;99727.97;5044899;28;20052;-70
2023/06/06 02:05:06;;;;;;;7.23;2.57;;;;;;;19.19;69.98;99729.81;5038608;28;20025;-70
2023/06/06 02:07:34;;;;;;;8.25;2.78;;;;;;;19.16;69.77;99729.09;5038930;28;20033;-70
2023/06/06 02:10:01;;;;;;;11.85;2.75;;;;;;;19.10;69.92;99729.38;5018803;28;20045;-70
2023/06/06 02:12:26;;;;;;;11.40;3.00;;;;;;;19.06;69.80;99729.53;5038703;28;20485;-70
2023/06/06 02:14:54;;;;;;;6.93;2.63;;;;;;;19.06;70.05;99729.53;5038517;28;20052;-70
2023/06/06 02:17:19;;;;;;;7.75;3.40;;;;;;;19.04;70.17;99741.22;5038481;28;20018;-70
2023/06/06 02:19:45;;;;;;;10.57;3.23;;;;;;;18.98;70.08;99736.13;5038465;28;20045;-70
2023/06/06 02:22:10;;;;;;;8.65;3.05;;;;;;;18.85;70.56;99731.38;5038403;28;20022;-70
2023/06/06 02:24:36;;;;;;;9.90;3.23;;;;;;;18.72;70.82;99733.75;5038374;28;20509;-70
2023/06/06 02:27:02;;;;;;;14.97;3.50;;;;;;;18.60;71.30;99737.84;5037950;28;20029;-70
2023/06/06 02:29:27;;;;;;;10.60;3.67;;;;;;;18.54;71.60;99726.59;5038151;28;20021;-70
2023/06/06 02:31:53;;;;;;;14.07;4.03;;;;;;;18.47;71.87;99734.03;5038214;28;20025;-70
2023/06/06 02:34:19;;;;;;;12.70;3.78;;;;;;;18.36;72.30;99729.19;5020105;28;20021;-70
2023/06/06 02:36:45;;;;;;;14.67;4.17;;;;;;;18.27;72.62;99729.59;5038055;28;20018;-70
2023/06/06 02:39:11;;;;;;;12.10;3.60;;;;;;;18.18;72.61;99728.19;5038203;28;20028;-70
2023/06/06 02:41:36;;;;;;;12.52;3.45;;;;;;;18.15;72.65;99731.00;5037883;28;20033;-70
2023/06/06 02:44:01;;;;;;;11.13;3.50;;;;;;;18.08;73.00;99728.59;5038186;28;20022;-69
2023/06/06 02:46:27;;;;;;;11.90;3.43;;;;;;;18.12;72.78;99726.69;5037603;28;20401;-70
2023/06/06 02:48:53;;;;;;;9.70;3.40;;;;;;;18.15;72.72;99736.31;5037730;28;20026;-70
2023/06/06 02:51:22;;;;;;;11.47;3.57;;;;;;;18.15;72.65;99741.66;5037938;28;20029;-70
2023/06/06 02:53:51;;;;;;;17.20;4.70;;;;;;;18.06;72.92;99751.78;5020276;28;20044;-70
2023/06/06 02:56:17;;;;;;;14.07;3.55;;;;;;;18.03;72.93;99749.25;5037704;28;20108;-70
2023/06/06 02:58:43;;;;;;;18.07;4.17;;;;;;;18.02;72.93;99755.53;5037637;28;20060;-70
2023/06/06 03:01:12;;;;;;;12.20;3.30;;;;;;;17.98;73.17;99761.88;5042260;28;20493;-70
2023/06/06 03:03:38;;;;;;;13.50;3.75;;;;;;;17.92;73.58;99762.13;5037368;28;20033;-70
2023/06/06 03:06:06;;;;;;;15.35;4.10;;;;;;;17.89;73.29;99764.94;5037613;28;20025;-70
2023/06/06 03:08:31;;;;;;;11.00;4.20;;;;;;;17.89;73.05;99763.16;5037591;28;20090;-70
2023/06/06 03:10:57;;;;;;;16.15;3.38;;;;;;;17.92;73.01;99762.13;5037236;28;20029;-70
2023/06/06 03:13:22;;;;;;;12.77;3.40;;;;;;;17.93;73.17;99766.53;5037596;28;20052;-70
2023/06/06 03:15:48;;;;;;;7.97;3.80;;;;;;;17.90;73.30;99769.31;5019379;28;20078;-70
2023/06/06 03:18:17;;;;;;;13.15;3.63;;;;;;;17.90;73.31;99772.00;5037348;28;20057;-70
2023/06/06 03:20:48;;;;;;;14.02;4.50;;;;;;;17.86;73.74;99773.06;5037213;28;20165;-70
2023/06/06 03:23:14;;;;;;;11.57;3.40;;;;;;;17.86;73.47;99765.06;5019487;28;20033;-70
2023/06/06 03:25:41;;;;;;;15.70;3.80;;;;;;;17.87;73.53;99765.00;5013221;28;20038;-70
2023/06/06 03:28:06;;;;;;;9.88;3.38;;;;;;;17.89;73.42;99760.47;5037346;28;20095;-70
2023/06/06 03:30:32;;;;;;;12.17;3.83;;;;;;;17.88;73.43;99763.19;5036698;28;20021;-70
2023/06/06 03:33:00;;;;;;;14.20;3.58;;;;;;;17.85;73.41;99750.00;5037253;28;20112;-70
2023/06/06 03:35:26;;;;;;;14.00;3.40;;;;;;;17.89;73.23;99756.94;5036768;28;20620;-70
2023/06/06 03:37:55;;;;;;;10.27;3.22;;;;;;;17.89;73.21;99756.94;5037216;28;20040;-70
2023/06/06 03:40:24;;;;;;;11.77;3.35;;;;;;;17.88;73.31;99765.88;5036983;28;20440;-70
2023/06/06 03:42:50;;;;;;;15.15;3.75;;;;;;;17.84;73.04;99764.25;5037008;28;20026;-70
2023/06/06 03:45:16;;;;;;;12.37;3.57;;;;;;;17.81;73.44;99757.25;5036857;28;20033;-70
2023/06/06 03:47:42;;;;;;;14.60;3.75;;;;;;;17.79;73.23;99761.78;5036561;28;20092;-70
2023/06/06 03:50:08;;;;;;;15.30;3.75;;;;;;;17.76;73.22;99762.81;5036678;28;20037;-70
2023/06/06 03:52:33;;;;;;;14.63;3.10;;;;;;;17.68;73.41;99762.22;5036975;28;20473;-70
2023/06/06 03:54:59;;;;;;;15.63;3.42;;;;;;;17.67;73.24;99776.47;5019071;28;20040;-70
2023/06/06 03:57:25;;;;;;;15.40;3.77;;;;;;;17.68;73.26;99777.34;5036772;28;20051;-70
2023/06/06 03:59:50;;;;;;;17.73;3.65;;;;;;;17.72;72.99;99770.97;5036650;28;20029;-70
2023/06/06 04:02:17;;;;;;;11.00;3.50;;;;;;;17.74;73.12;99767.31;5042749;28;20025;-70
2023/06/06 04:04:43;;;;;;;14.30;3.40;;;;;;;17.74;72.96;99764.66;5018562;28;20044;-70
2023/06/06 04:07:09;;;;;;;11.70;3.65;;;;;;;17.72;73.04;99758.50;5036560;28;20037;-70
2023/06/06 04:09:35;;;;;;;15.30;3.73;;;;;;;17.71;73.15;99770.09;5036737;28;20125;-70
2023/06/06 04:12:02;;;;;;;12.10;3.55;;;;;;;17.66;73.39;99769.41;5036494;28;20108;-70
2023/06/06 04:14:27;;;;;;;13.90;3.70;;;;;;;17.64;73.49;99777.50;5036676;28;20497;-70
2023/06/06 04:16:53;;;;;;;14.93;3.37;;;;;;;17.63;73.38;99769.56;5036450;28;20397;-70
2023/06/06 04:19:18;;;;;;;12.02;3.60;;;;;;;17.62;73.51;99771.38;5035930;28;20144;-70
2023/06/06 04:21:45;;;;;;;16.90;3.70;;;;;;;17.61;73.71;99774.97;5036774;28;20452;-70
2023/06/06 04:24:11;;;;;;;15.43;3.90;;;;;;;17.61;73.73;99780.28;5036239;28;20030;-70
2023/06/06 04:26:36;;;;;;;15.07;3.70;;;;;;;17.59;73.61;99782.13;5030727;28;20512;-70
2023/06/06 04:29:02;;;;;;;18.13;4.15;;;;;;;17.49;74.02;99781.66;5036438;28;20513;-70
2023/06/06 04:31:32;;;;;;;16.50;3.90;;;;;;;17.46;73.92;99776.44;5018808;28;20030;-70
2023/06/06 04:34:01;;;;;;;13.18;4.15;;;;;;;17.42;74.10;99780.16;5036113;28;20036;-70
2023/06/06 04:36:26;;;;;;;12.63;4.20;;;;;;;17.42;74.07;99780.16;5036423;28;20029;-70
2023/06/06 04:38:53;;;;;;;16.27;4.30;;;;;;;17.39;74.06;99777.63;5036375;28;20032;-70
2023/06/06 04:41:22;;;;;;;15.40;3.63;;;;;;;17.35;74.19;99766.22;5036455;28;20129;-70
2023/06/06 04:43:49;;;;;;;13.38;3.50;;;;;;;17.40;73.85;99766.03;5036207;28;20041;-70
2023/06/06 04:46:21;;;;;;;12.63;3.80;;;;;;;17.41;73.94;99772.25;5036426;28;20056;-70
2023/06/06 04:48:54;;;;;;;15.85;3.92;;;;;;;17.40;73.60;99784.66;5035668;28;20532;-70
2023/06/06 04:51:29;;;;;;;15.23;3.83;;;;;;;17.46;73.73;99787.06;5036478;28;20029;-70
2023/06/06 04:53:59;;;;;;;21.45;3.78;;;;;;;17.49;73.72;99786.09;5024279;28;20021;-70
2023/06/06 04:56:29;;;;;;;11.60;3.65;;;;;;;17.50;73.70;99785.16;5036167;28;20036;-70
2023/06/06 04:58:56;;;;;;;19.37;3.93;;;;;;;17.48;73.47;99779.03;5036445;28;20103;-70
2023/06/06 05:01:23;;;;;;;19.60;4.65;;;;;;;17.51;73.36;99778.91;5042498;28;20083;-70
2023/06/06 05:03:48;;;;;;;13.00;3.80;;;;;;;17.51;73.52;99781.56;5035953;28;20034;-70
2023/06/06 05:06:14;;;;;;;17.85;3.75;;;;;;;17.56;73.38;99784.06;5036331;28;20084;-70
2023/06/06 05:08:41;;;;;;;14.27;3.30;;;;;;;17.65;73.11;99781.00;5036261;28;20474;-70
2023/06/06 05:11:07;;;;;;;19.35;3.75;;;;;;;17.67;73.02;99787.13;5035862;28;20031;-70
2023/06/06 05:13:34;;;;;;;15.37;4.10;;;;;;;17.69;73.04;99781.75;5036464;28;20083;-70
2023/06/06 05:16:00;;;;;;;14.45;3.85;;;;;;;17.63;73.19;99782.88;5035335;28;20036;-70
2023/06/06 05:18:25;;;;;;;12.35;3.55;;;;;;;17.67;73.03;99781.81;5035720;28;20034;-70
2023/06/06 05:20:51;;;;;;;13.83;3.90;;;;;;;17.73;72.84;99783.34;5038522;28;20040;-70
2023/06/06 05:23:16;;;;;;;16.02;3.85;;;;;;;17.76;72.85;99780.56;5021737;28;20091;-70
2023/06/06 05:25:42;;;;;;;13.37;4.10;;;;;;;17.86;72.66;99781.03;5033165;28;20116;-70
2023/06/06 05:28:07;;;;;;;15.40;4.03;;;;;;;17.85;72.81;99781.97;5039741;28;20478;-70
2023/06/06 05:30:32;;;;;;;11.47;3.43;;;;;;;17.87;72.84;99775.66;5039121;28;20025;-70
2023/06/06 05:32:58;;;;;;;15.10;4.47;;;;;;;17.91;72.84;99776.38;5039459;28;20054;-70
2023/06/06 05:35:23;;;;;;;11.33;4.33;;;;;;;18.03;72.59;99781.22;5039026;28;20268;-70
2023/06/06 05:37:49;;;;;;;17.83;4.10;;;;;;;18.16;71.89;99784.22;5021578;28;20068;-70
2023/06/06 05:40:15;;;;;;;13.15;4.30;;;;;;;18.16;71.79;99784.22;5039339;28;20029;-70
2023/06/06 05:42:40;;;;;;;10.97;4.30;;;;;;;18.12;72.09;99789.75;5038745;28;20048;-70
2023/06/06 05:45:06;;;;;;;19.90;4.33;;;;;;;18.03;72.49;99791.88;5039033;28;20474;-70
2023/06/06 05:47:32;;;;;;;13.70;4.30;;;;;;;17.92;72.82;99789.66;5039059;28;20331;-70
2023/06/06 05:49:58;;;;;;;13.57;4.27;;;;;;;17.96;72.76;99790.38;5039035;28;20060;-72
2023/06/06 05:52:24;;;;;;;11.83;3.83;;;;;;;18.04;72.40;99788.28;5040204;28;20264;-70
2023/06/06 05:55:02;;;;;;;16.45;3.85;;;;;;;18.03;72.57;99783.91;5039125;28;20431;-70
2023/06/06 05:57:27;;;;;;;14.68;4.28;;;;;;;18.06;72.90;99786.44;5032564;28;20037;-69
2023/06/06 05:59:52;;;;;;;16.43;4.20;;;;;;;18.06;72.70;99786.44;5019879;28;20032;-69
2023/06/06 06:02:20;;;;;;;15.23;4.50;;;;;;;18.07;72.79;99792.59;5045153;28;20026;-69
2023/06/06 06:04:45;;;;;;;10.70;3.67;;;;;;;18.15;72.56;99782.50;5038285;28;20041;-71
2023/06/06 06:07:11;;;;;;;15.83;4.20;;;;;;;18.26;72.43;99790.03;5038788;28;20401;-70
2023/06/06 06:09:37;;;;;;;14.02;3.78;;;;;;;18.31;72.12;99801.34;5038574;28;20444;-70
2023/06/06 06:12:04;;;;;;;10.03;3.80;;;;;;;18.39;72.00;99797.47;5038184;28;20034;-70
2023/06/06 06:14:29;;;;;;;12.30;4.03;;;;;;;18.46;72.02;99796.28;5013648;28;20032;-70
2023/06/06 06:16:55;;;;;;;11.10;4.30;;;;;;;18.57;71.60;99794.00;5017024;28;20033;-70
2023/06/06 06:19:20;;;;;;;11.57;3.95;;;;;;;18.63;71.46;99796.38;5037551;28;20120;-70
2023/06/06 06:21:45;;;;;;;18.97;4.77;;;;;;;18.76;71.14;99791.34;5032223;28;20048;-69
2023/06/06 06:24:11;;;;;;;18.03;3.93;;;;;;;18.89;70.87;99794.31;5034243;28;20021;-70
2023/06/06 06:26:36;;;;;;;13.27;3.70;;;;;;;19.02;70.34;99801.78;5033227;28;20488;-68
2023/06/06 06:29:01;;;;;;;9.27;3.90;;;;;;;19.15;70.19;99807.41;5038017;28;20040;-68
2023/06/06 06:31:27;;;;;;;12.87;4.00;;;;;;;19.30;69.66;99798.69;5033228;28;20168;-68
2023/06/06 06:33:53;;;;;;;12.27;3.88;;;;;;;19.43;69.49;99806.97;5034606;28;20030;-69
2023/06/06 06:36:18;;;;;;;15.83;3.87;;;;;;;19.48;69.82;99810.28;5035804;28;20041;-68
2023/06/06 06:38:44;;;;;;;11.80;3.37;;;;;;;19.58;69.43;99809.81;5019234;28;20035;-70
2023/06/06 06:41:09;;;;;;;14.77;3.50;;;;;;;19.73;69.38;99806.41;5020258;28;20501;-69
2023/06/06 06:43:35;;;;;;;9.10;3.50;;;;;;;19.90;69.02;99804.72;5035965;28;20033;-70
2023/06/06 06:46:00;;;;;;;10.10;3.50;;;;;;;20.02;68.88;99805.94;5019592;28;20041;-70
2023/06/06 06:48:26;;;;;;;14.10;3.90;;;;;;;20.10;68.87;99806.38;5037449;28;20049;-70
2023/06/06 06:50:52;;;;;;;13.82;3.72;;;;;;;20.12;68.58;99808.97;5019849;28;20589;-70
2023/06/06 06:53:18;;;;;;;10.10;3.77;;;;;;;20.22;68.74;99810.22;5037825;28;20029;-69
2023/06/06 06:55:45;;;;;;;12.50;4.20;;;;;;;20.31;68.75;99814.25;5037991;28;20101;-69
2023/06/06 06:58:13;;;;;;;12.77;3.70;;;;;;;20.37;68.54;99820.13;5037507;28;20044;-70
2023/06/06 07:00:39;;;;;;;9.43;3.80;;;;;;;20.50;68.00;99814.13;5039623;28;20033;-69
2023/06/06 07:03:05;;;;;;;13.30;3.70;;;;;;;20.64;68.10;99808.94;5040066;28;20030;-70
2023/06/06 07:05:31;;;;;;;10.73;4.00;;;;;;;20.79;67.67;99806.34;5037576;28;20474;-70
2023/06/06 07:07:57;;;;;;;12.50;3.53;;;;;;;20.87;67.60;99809.53;5037244;28;20045;-70
2023/06/06 07:10:24;;;;;;;9.40;3.20;;;;;;;20.98;66.10;99808.06;5037674;28;20042;-70
2023/06/06 07:12:51;;;;;;;9.35;3.60;;;;;;;21.11;66.46;99795.75;5037250;28;20021;-70
2023/06/06 07:15:18;;;;;;;7.43;3.20;;;;;;;21.28;66.52;99797.47;5037432;28;20025;-70
2023/06/06 07:17:49;;;;;;;14.65;3.60;;;;;;;21.45;66.20;99796.50;5037474;28;20021;-70
2023/06/06 07:20:15;;;;;;;10.97;3.50;;;;;;;21.66;65.42;99798.94;5037316;28;20041;-70
2023/06/06 07:22:40;;;;;;;13.77;3.30;;;;;;;21.82;65.21;99800.69;5037101;28;20030;-70
2023/06/06 07:25:07;;;;;;;11.60;3.67;;;;;;;21.98;64.64;99798.00;5019668;28;20425;-70
2023/06/06 07:27:35;;;;;;;11.65;3.85;;;;;;;22.12;64.47;99799.88;5019510;28;20021;-70
2023/06/06 07:30:02;;;;;;;9.83;3.30;;;;;;;22.25;64.34;99800.84;5037140;28;20399;-70
2023/06/06 07:32:28;;;;;;;8.75;3.22;;;;;;;22.36;63.15;99803.75;5037384;28;20052;-70
2023/06/06 07:34:53;;;;;;;10.73;3.53;;;;;;;22.52;63.36;99800.13;5036944;28;20474;-70
2023/06/06 07:37:19;;;;;;;11.82;3.40;;;;;;;22.70;62.78;99797.28;5019091;28;20033;-70
2023/06/06 07:39:45;;;;;;;11.07;3.30;;;;;;;22.83;62.20;99800.94;5037197;28;20029;-70
2023/06/06 07:42:10;;;;;;;8.65;3.50;;;;;;;22.98;62.45;99801.78;5036426;28;20117;-70
2023/06/06 07:44:36;;;;;;;9.10;3.40;;;;;;;23.10;61.77;99797.44;5036886;28;20116;-70
2023/06/06 07:47:01;;;;;;;10.10;3.10;;;;;;;23.26;61.98;99796.47;5036753;28;20081;-70
2023/06/06 07:49:26;;;;;;;9.03;3.20;;;;;;;23.44;61.39;99797.97;5037017;28;20491;-71
2023/06/06 07:51:52;;;;;;;9.07;4.07;;;;;;;23.57;60.93;99797.16;5036638;28;20037;-70
2023/06/06 07:54:18;;;;;;;9.73;3.43;;;;;;;23.72;61.16;99792.59;5037149;28;20324;-70
2023/06/06 07:56:44;;;;;;;10.38;3.58;;;;;;;23.85;60.36;99793.47;5036757;28;20132;-70
2023/06/06 07:59:09;;;;;;;8.63;3.60;;;;;;;24.06;60.70;99791.22;5019086;28;20033;-71
2023/06/06 08:01:36;;;;;;;10.10;3.23;;;;;;;24.28;60.41;99792.44;5023950;28;20059;-70
2023/06/06 08:04:01;;;;;;;9.80;3.40;;;;;;;24.49;58.98;99791.91;5036524;28;20633;-70
2023/06/06 08:06:32;;;;;;;11.43;3.83;;;;;;;24.53;58.65;99785.34;5036794;28;20033;-70
2023/06/06 08:08:59;;;;;;;6.65;2.90;;;;;;;24.51;58.16;99784.56;5036752;28;20112;-70
2023/06/06 08:11:25;;;;;;;13.97;3.07;;;;;;;24.56;57.78;99785.09;5036517;28;20100;-70
2023/06/06 08:13:50;;;;;;;11.52;3.28;;;;;;;24.52;56.91;99784.44;5036744;28;20104;-70
2023/06/06 08:16:15;;;;;;;7.88;2.75;;;;;;;24.53;56.94;99782.63;5036547;28;20029;-70
2023/06/06 08:18:41;;;;;;;9.70;2.80;;;;;;;24.56;57.14;99787.81;5036594;28;20056;-70
2023/06/06 08:21:06;;;;;;;7.10;2.43;;;;;;;24.67;56.98;99778.97;5018878;28;20030;-70
2023/06/06 08:23:33;;;;;;;9.10;2.90;;;;;;;24.77;57.15;99774.66;5018900;28;20032;-70
2023/06/06 08:25:59;;;;;;;8.07;2.70;;;;;;;24.88;56.11;99773.91;5018790;28;20032;-70
2023/06/06 08:28:25;;;;;;;7.70;2.53;;;;;;;24.98;55.67;99774.09;5036721;28;20029;-70
2023/06/06 08:30:51;;;;;;;8.05;2.85;;;;;;;24.91;54.93;99770.97;5036050;28;20033;-70
2023/06/06 08:33:18;;;;;;;5.23;2.67;;;;;;;25.13;55.90;99773.97;5036500;28;20041;-70
2023/06/06 08:35:44;;;;;;;6.18;2.70;;;;;;;25.20;55.71;99776.09;5036476;28;20427;-70
2023/06/06 08:38:10;;;;;;;8.77;2.72;;;;;;;25.31;55.40;99777.13;5018631;28;20379;-70
2023/06/06 08:40:36;;;;;;;9.88;2.53;;;;;;;25.32;55.47;99774.31;5036345;28;20072;-70
2023/06/06 08:43:04;;;;;;;7.03;2.90;;;;;;;25.37;55.51;99776.66;5018857;28;20030;-70
2023/06/06 08:45:31;;;;;;;8.23;3.00;;;;;;;25.30;55.30;99778.09;5036156;28;20053;-70
2023/06/06 08:47:58;;;;;;;6.93;2.80;;;;;;;25.21;54.79;99775.13;5036140;28;20117;-70
2023/06/06 08:50:26;;;;;;;8.32;3.10;;;;;;;25.15;54.52;99767.47;5036374;28;20033;-70
2023/06/06 08:52:52;;;;;;;7.95;3.22;;;;;;;25.15;54.63;99761.22;5036267;28;20030;-70
2023/06/06 08:55:18;;;;;;;7.93;2.70;;;;;;;25.16;55.22;99762.94;5039675;28;20516;-70
2023/06/06 08:57:47;;;;;;;7.05;2.97;;;;;;;25.21;55.04;99752.69;5040211;28;20025;-70
2023/06/06 09:00:20;;;;;;;7.10;2.70;;;;;;;25.34;54.83;99750.81;5039728;28;20082;-70
2023/06/06 09:02:47;;;;;;;7.05;2.70;;;;;;;25.57;55.15;99747.38;5046016;28;20049;-70
2023/06/06 09:05:16;;;;;;;7.73;2.63;;;;;;;25.79;54.35;99744.78;5039872;28;20501;-70
2023/06/06 09:07:42;;;;;;;6.90;2.70;;;;;;;26.04;54.51;99748.28;5040072;28;20036;-70
2023/06/06 09:10:08;;;;;;;9.02;2.95;;;;;;;26.17;53.72;99748.22;5039692;28;20049;-70
2023/06/06 09:12:44;;;;;;;8.40;2.90;;;;;;;26.19;53.23;99751.66;5039602;28;20036;-70
2023/06/06 09:15:11;;;;;;;8.63;2.80;;;;;;;26.22;52.19;99755.97;5021904;28;20033;-70
2023/06/06 09:17:37;;;;;;;5.35;3.10;;;;;;;26.16;51.92;99751.00;5021954;28;20553;-70
2023/06/06 09:20:07;;;;;;;6.82;2.60;;;;;;;26.11;52.13;99751.38;5021975;28;20032;-70
2023/06/06 09:22:40;;;;;;;7.95;3.05;;;;;;;26.02;52.18;99752.94;5021738;28;20491;-70
2023/06/06 09:25:12;;;;;;;5.70;2.73;;;;;;;25.98;51.99;99758.69;5039656;28;20017;-70
2023/06/06 09:27:38;;;;;;;7.00;2.75;;;;;;;25.93;52.05;99750.97;5039406;28;20456;-70
2023/06/06 09:30:03;;;;;;;7.47;2.80;;;;;;;25.95;52.35;99749.00;5039421;28;20112;-70
2023/06/06 09:32:29;;;;;;;5.65;2.80;;;;;;;26.02;52.09;99750.25;5021676;28;20021;-70
2023/06/06 09:35:00;;;;;;;5.60;2.70;;;;;;;26.17;51.90;99752.78;5021322;28;20513;-70
2023/06/06 09:37:27;;;;;;;6.50;2.77;;;;;;;26.32;52.30;99751.56;5039346;28;20021;-70
2023/06/06 09:40:15;;;;;;;6.35;2.95;;;;;;;26.37;52.32;99753.91;5039479;28;20543;-70
2023/06/06 09:42:45;;;;;;;6.65;2.80;;;;;;;26.50;52.24;99756.47;5027610;28;20047;-70
2023/06/06 09:45:15;;;;;;;9.63;2.80;;;;;;;26.48;52.34;99756.59;5039029;28;20136;-70
2023/06/06 09:47:48;;;;;;;5.88;2.63;;;;;;;26.43;51.81;99752.56;5039053;28;20073;-70
2023/06/06 09:50:16;;;;;;;6.63;2.80;;;;;;;26.38;51.99;99761.00;5039174;28;20040;-71
2023/06/06 09:52:42;;;;;;;7.15;2.90;;;;;;;26.40;52.04;99758.19;5038982;28;20481;-70
2023/06/06 09:55:12;;;;;;;7.97;3.45;;;;;;;26.36;52.13;99753.03;5021040;28;20036;-70
2023/06/06 09:57:40;;;;;;;6.68;2.92;;;;;;;26.39;52.76;99759.16;5038631;28;20025;-70
2023/06/06 10:00:14;;;;;;;11.35;3.25;;;;;;;26.33;52.18;99758.66;5038809;28;20026;-71
2023/06/06 10:02:43;;;;;;;9.13;2.70;;;;;;;26.32;52.42;99759.66;5045659;28;20025;-71
2023/06/06 10:05:13;;;;;;;6.38;3.00;;;;;;;26.29;51.98;99751.81;5037929;28;20064;-71
2023/06/06 10:07:41;;;;;;;6.45;2.80;;;;;;;26.28;52.06;99755.47;5038807;28;20029;-71
2023/06/06 10:10:11;;;;;;;9.60;3.35;;;;;;;26.21;52.25;99754.25;5020970;28;20451;-71
2023/06/06 10:12:38;;;;;;;8.70;3.35;;;;;;;26.16;52.10;99753.69;5038477;28;20432;-71
2023/06/06 10:15:12;;;;;;;8.23;3.20;;;;;;;26.14;52.22;99752.94;5038742;28;20501;-71
2023/06/06 10:17:42;;;;;;;9.18;3.50;;;;;;;26.12;52.59;99750.41;5038656;28;20022;-71
2023/06/06 10:20:12;;;;;;;7.25;3.45;;;;;;;26.28;52.08;99757.31;5038553;28;20072;-71
2023/06/06 10:22:41;;;;;;;8.45;3.00;;;;;;;26.49;52.39;99754.78;5020735;28;20481;-71
2023/06/06 10:25:11;;;;;;;5.82;3.25;;;;;;;26.68;51.66;99745.22;5038502;28;20501;-71
2023/06/06 10:27:58;;;;;;;7.93;3.17;;;;;;;26.82;51.22;99746.78;5038375;28;20112;-71
2023/06/06 10:30:37;;;;;;;6.80;3.30;;;;;;;26.98;50.20;99746.44;5038098;28;20100;-71
2023/06/06 10:33:27;;;;;;;9.68;3.40;;;;;;;26.95;50.65;99742.13;5038133;28;20024;-71
2023/06/06 10:35:59;;;;;;;8.63;3.33;;;;;;;27.00;50.59;99745.31;5038214;28;20017;-71
2023/06/06 10:38:24;;;;;;;7.70;3.25;;;;;;;27.06;50.83;99730.44;5038344;28;20036;-71
2023/06/06 10:40:51;;;;;;;7.73;3.27;;;;;;;27.16;50.79;99726.00;5038110;28;20025;-71
2023/06/06 10:43:35;;;;;;;7.55;3.17;;;;;;;27.25;51.21;99737.91;5038166;28;20156;-71
2023/06/06 10:46:04;;;;;;;6.33;3.30;;;;;;;27.42;50.87;99735.63;5020397;28;20048;-71
2023/06/06 10:48:42;;;;;;;7.03;3.58;;;;;;;27.38;50.13;99732.34;5037676;28;20730;-71
2023/06/06 10:51:23;;;;;;;10.82;3.72;;;;;;;27.30;49.95;99732.09;5038186;28;20041;-71
2023/06/06 10:54:27;;;;;;;7.70;3.45;;;;;;;27.21;49.83;99731.88;5037674;28;20029;-71
2023/06/06 10:56:54;;;;;;;6.70;3.75;;;;;;;27.36;50.09;99731.56;5019935;28;20038;-71
2023/06/06 10:59:27;;;;;;;5.47;3.27;;;;;;;27.49;50.16;99732.28;5037868;28;20025;-71
2023/06/06 11:01:54;;;;;;;7.00;3.58;;;;;;;27.62;49.41;99732.13;5043708;28;20021;-71
2023/06/06 11:04:28;;;;;;;8.18;3.55;;;;;;;27.64;48.78;99726.59;5037627;28;20033;-71
2023/06/06 11:06:58;;;;;;;8.00;3.47;;;;;;;27.62;47.86;99732.13;5025272;28;20037;-71
2023/06/06 11:09:33;;;;;;;6.97;3.90;;;;;;;27.58;48.07;99727.97;5037569;28;20030;-71
2023/06/06 11:12:13;;;;;;;9.10;3.80;;;;;;;27.43;47.77;99732.81;5019667;28;20025;-71
2023/06/06 11:14:58;;;;;;;7.82;3.80;;;;;;;27.45;48.51;99732.66;5036289;28;20026;-71
2023/06/06 11:17:43;;;;;;;8.07;3.55;;;;;;;27.58;48.13;99727.09;5036686;28;20029;-71
2023/06/06 11:20:20;;;;;;;7.07;3.45;;;;;;;27.69;47.82;99726.19;5037303;28;20029;-71
2023/06/06 11:23:02;;;;;;;7.38;3.42;;;;;;;27.85;48.06;99720.31;5037284;28;20032;-71
2023/06/06 11:25:28;;;;;;;7.53;3.47;;;;;;;27.97;47.70;99726.53;5037151;28;20631;-71
2023/06/06 11:27:55;;;;;;;7.22;3.80;;;;;;;27.97;47.16;99721.13;5037626;28;20036;-71
2023/06/06 11:30:20;;;;;;;7.93;4.10;;;;;;;27.96;47.21;99712.16;5017299;28;20445;-71
2023/06/06 11:32:46;;;;;;;7.50;4.10;;;;;;;27.93;47.39;99710.56;5037353;28;20076;-71